sensor_id;sensor_type;location;lat;lon;timestamp;P1;durP1;ratioP1;P2;durP2;ratioP2
46122;SDS011;31856;-35.404;149.120;2022-07-22T00:01:41;1.55;;;0.47;;
46122;SDS011;31856;-35.404;149.120;2022-07-22T00:04:11;1.52;;;0.55;;
46122;SDS011;31856;-35.404;149.120;2022-07-22T00:06:43;2.15;;;0.40;;
46122;SDS011;31856;-35.404;149.120;2022-07-22T00:09:13;1.50;;;0.50;;
46122;SDS011;31856;-35.404;149.120;2022-07-22T00:11:43;2.70;;;0.60;;
46122;SDS011;31856;-35.404;149.120;2022-07-22T00:14:13;2.15;;;0.50;;
46122;SDS011;31856;-35.404;149.120;2022-07-22T00:16:43;1.95;;;0.40;;
46122;SDS011;31856;-35.404;149.120;2022-07-22T00:19:13;3.47;;;0.50;;
46122;SDS011;31856;-35.404;149.120;2022-07-22T00:21:43;1.58;;;0.50;;
46122;SDS011;31856;-35.404;149.120;2022-07-22T00:24:13;1.20;;;0.50;;
46122;SDS011;31856;-35.404;149.120;2022-07-22T00:26:44;1.40;;;0.50;;
46122;SDS011;31856;-35.404;149.120;2022-07-22T00:29:16;1.80;;;0.60;;
46122;SDS011;31856;-35.404;149.120;2022-07-22T00:31:47;0.70;;;0.40;;
46122;SDS011;31856;-35.404;149.120;2022-07-22T00:34:17;1.95;;;0.50;;
46122;SDS011;31856;-35.404;149.120;2022-07-22T00:36:47;1.25;;;0.43;;
46122;SDS011;31856;-35.404;149.120;2022-07-22T00:39:17;1.58;;;0.50;;
46122;SDS011;31856;-35.404;149.120;2022-07-22T00:41:48;2.70;;;1.10;;
46122;SDS011;31856;-35.404;149.120;2022-07-22T00:44:20;3.17;;;0.50;;
46122;SDS011;31856;-35.404;149.120;2022-07-22T00:46:52;2.00;;;0.47;;
46122;SDS011;31856;-35.404;149.120;2022-07-22T00:49:24;1.17;;;0.50;;
46122;SDS011;31856;-35.404;149.120;2022-07-22T00:51:54;1.58;;;0.40;;
46122;SDS011;31856;-35.404;149.120;2022-07-22T00:54:24;1.80;;;0.40;;
46122;SDS011;31856;-35.404;149.120;2022-07-22T00:56:54;0.55;;;0.30;;
46122;SDS011;31856;-35.404;149.120;2022-07-22T00:59:25;1.67;;;0.40;;
46122;SDS011;31856;-35.404;149.120;2022-07-22T01:01:55;1.38;;;0.50;;
46122;SDS011;31856;-35.404;149.120;2022-07-22T01:04:26;0.65;;;0.30;;
46122;SDS011;31856;-35.404;149.120;2022-07-22T01:06:56;2.38;;;0.47;;
46122;SDS011;31856;-35.404;149.120;2022-07-22T01:09:26;1.48;;;0.40;;
46122;SDS011;31856;-35.404;149.120;2022-07-22T01:11:56;2.58;;;0.50;;
46122;SDS011;31856;-35.404;149.120;2022-07-22T01:14:26;2.08;;;0.50;;
46122;SDS011;31856;-35.404;149.120;2022-07-22T01:16:56;6.45;;;0.90;;
46122;SDS011;31856;-35.404;149.120;2022-07-22T01:19:26;1.20;;;0.50;;
46122;SDS011;31856;-35.404;149.120;2022-07-22T01:21:56;0.47;;;0.30;;
46122;SDS011;31856;-35.404;149.120;2022-07-22T01:24:26;2.53;;;0.40;;
46122;SDS011;31856;-35.404;149.120;2022-07-22T01:26:58;1.13;;;0.35;;
46122;SDS011;31856;-35.404;149.120;2022-07-22T01:29:28;2.33;;;0.40;;
46122;SDS011;31856;-35.404;149.120;2022-07-22T01:31:58;0.65;;;0.30;;
46122;SDS011;31856;-35.404;149.120;2022-07-22T01:34:28;0.77;;;0.57;;
46122;SDS011;31856;-35.404;149.120;2022-07-22T01:36:58;0.55;;;0.30;;
46122;SDS011;31856;-35.404;149.120;2022-07-22T01:39:28;2.03;;;0.40;;
46122;SDS011;31856;-35.404;149.120;2022-07-22T01:41:58;0.88;;;0.40;;
46122;SDS011;31856;-35.404;149.120;2022-07-22T01:44:30;0.45;;;0.30;;
46122;SDS011;31856;-35.404;149.120;2022-07-22T01:47:00;2.35;;;0.30;;
46122;SDS011;31856;-35.404;149.120;2022-07-22T01:49:31;1.45;;;0.38;;
46122;SDS011;31856;-35.404;149.120;2022-07-22T01:52:02;0.57;;;0.30;;
46122;SDS011;31856;-35.404;149.120;2022-07-22T01:54:33;1.02;;;0.30;;
46122;SDS011;31856;-35.404;149.120;2022-07-22T01:57:05;2.92;;;0.50;;
46122;SDS011;31856;-35.404;149.120;2022-07-22T01:59:36;1.52;;;0.40;;
46122;SDS011;31856;-35.404;149.120;2022-07-22T02:02:06;1.88;;;0.50;;
46122;SDS011;31856;-35.404;149.120;2022-07-22T02:04:36;1.38;;;0.60;;
46122;SDS011;31856;-35.404;149.120;2022-07-22T02:07:06;2.70;;;0.93;;
46122;SDS011;31856;-35.404;149.120;2022-07-22T02:09:36;3.10;;;0.47;;
46122;SDS011;31856;-35.404;149.120;2022-07-22T02:12:06;0.80;;;0.35;;
46122;SDS011;31856;-35.404;149.120;2022-07-22T02:14:37;3.60;;;0.60;;
46122;SDS011;31856;-35.404;149.120;2022-07-22T02:17:07;1.75;;;0.40;;
46122;SDS011;31856;-35.404;149.120;2022-07-22T02:19:37;0.90;;;0.50;;
46122;SDS011;31856;-35.404;149.120;2022-07-22T02:22:07;0.60;;;0.40;;
46122;SDS011;31856;-35.404;149.120;2022-07-22T02:24:37;0.52;;;0.32;;
46122;SDS011;31856;-35.404;149.120;2022-07-22T02:27:08;4.28;;;1.02;;
46122;SDS011;31856;-35.404;149.120;2022-07-22T02:29:39;1.65;;;0.35;;
46122;SDS011;31856;-35.404;149.120;2022-07-22T02:32:09;0.88;;;0.40;;
46122;SDS011;31856;-35.404;149.120;2022-07-22T02:34:39;0.60;;;0.40;;
46122;SDS011;31856;-35.404;149.120;2022-07-22T02:37:10;1.33;;;0.40;;
46122;SDS011;31856;-35.404;149.120;2022-07-22T02:39:40;3.80;;;0.47;;
46122;SDS011;31856;-35.404;149.120;2022-07-22T02:42:10;1.92;;;0.70;;
46122;SDS011;31856;-35.404;149.120;2022-07-22T02:44:40;1.98;;;0.40;;
46122;SDS011;31856;-35.404;149.120;2022-07-22T02:47:10;1.00;;;0.60;;
46122;SDS011;31856;-35.404;149.120;2022-07-22T02:49:40;0.40;;;0.30;;
46122;SDS011;31856;-35.404;149.120;2022-07-22T02:52:10;0.60;;;0.40;;
46122;SDS011;31856;-35.404;149.120;2022-07-22T02:54:40;0.77;;;0.35;;
46122;SDS011;31856;-35.404;149.120;2022-07-22T02:57:11;0.47;;;0.30;;
46122;SDS011;31856;-35.404;149.120;2022-07-22T02:59:42;0.60;;;0.40;;
46122;SDS011;31856;-35.404;149.120;2022-07-22T03:02:11;1.40;;;0.30;;
46122;SDS011;31856;-35.404;149.120;2022-07-22T03:04:41;0.52;;;0.30;;
46122;SDS011;31856;-35.404;149.120;2022-07-22T03:07:11;0.52;;;0.30;;
46122;SDS011;31856;-35.404;149.120;2022-07-22T03:09:41;0.77;;;0.30;;
46122;SDS011;31856;-35.404;149.120;2022-07-22T03:12:13;0.25;;;0.25;;
46122;SDS011;31856;-35.404;149.120;2022-07-22T03:14:43;0.40;;;0.30;;
46122;SDS011;31856;-35.404;149.120;2022-07-22T03:17:14;0.30;;;0.30;;
46122;SDS011;31856;-35.404;149.120;2022-07-22T03:19:45;0.30;;;0.30;;
46122;SDS011;31856;-35.404;149.120;2022-07-22T03:22:15;0.47;;;0.30;;
46122;SDS011;31856;-35.404;149.120;2022-07-22T03:24:45;1.33;;;0.30;;
46122;SDS011;31856;-35.404;149.120;2022-07-22T03:27:15;0.65;;;0.30;;
46122;SDS011;31856;-35.404;149.120;2022-07-22T03:29:45;2.55;;;0.68;;
46122;SDS011;31856;-35.404;149.120;2022-07-22T03:32:15;1.05;;;0.30;;
46122;SDS011;31856;-35.404;149.120;2022-07-22T03:34:45;0.90;;;0.40;;
46122;SDS011;31856;-35.404;149.120;2022-07-22T03:37:16;1.15;;;0.30;;
46122;SDS011;31856;-35.404;149.120;2022-07-22T03:39:46;1.70;;;0.60;;
46122;SDS011;31856;-35.404;149.120;2022-07-22T03:42:16;1.33;;;0.40;;
46122;SDS011;31856;-35.404;149.120;2022-07-22T03:44:47;1.10;;;0.57;;
46122;SDS011;31856;-35.404;149.120;2022-07-22T03:47:18;1.08;;;0.45;;
46122;SDS011;31856;-35.404;149.120;2022-07-22T03:49:48;1.25;;;0.40;;
46122;SDS011;31856;-35.404;149.120;2022-07-22T03:52:19;1.60;;;0.40;;
46122;SDS011;31856;-35.404;149.120;2022-07-22T03:54:49;0.55;;;0.38;;
46122;SDS011;31856;-35.404;149.120;2022-07-22T03:57:19;0.40;;;0.32;;
46122;SDS011;31856;-35.404;149.120;2022-07-22T03:59:49;2.42;;;0.52;;
46122;SDS011;31856;-35.404;149.120;2022-07-22T04:02:19;2.60;;;0.40;;
46122;SDS011;31856;-35.404;149.120;2022-07-22T04:04:49;1.48;;;0.30;;
46122;SDS011;31856;-35.404;149.120;2022-07-22T04:07:19;1.00;;;0.40;;
46122;SDS011;31856;-35.404;149.120;2022-07-22T04:09:49;0.60;;;0.40;;
46122;SDS011;31856;-35.404;149.120;2022-07-22T04:12:19;2.53;;;0.40;;
46122;SDS011;31856;-35.404;149.120;2022-07-22T04:14:49;1.60;;;0.40;;
46122;SDS011;31856;-35.404;149.120;2022-07-22T04:17:19;0.77;;;0.30;;
46122;SDS011;31856;-35.404;149.120;2022-07-22T04:19:49;1.52;;;0.40;;
46122;SDS011;31856;-35.404;149.120;2022-07-22T04:22:20;1.75;;;0.40;;
46122;SDS011;31856;-35.404;149.120;2022-07-22T04:24:53;0.93;;;0.50;;
46122;SDS011;31856;-35.404;149.120;2022-07-22T04:27:23;1.40;;;0.50;;
46122;SDS011;31856;-35.404;149.120;2022-07-22T04:29:53;1.75;;;0.52;;
46122;SDS011;31856;-35.404;149.120;2022-07-22T04:32:24;1.05;;;0.43;;
46122;SDS011;31856;-35.404;149.120;2022-07-22T04:34:55;3.45;;;0.75;;
46122;SDS011;31856;-35.404;149.120;2022-07-22T04:37:25;1.42;;;0.50;;
46122;SDS011;31856;-35.404;149.120;2022-07-22T04:39:55;1.10;;;0.60;;
46122;SDS011;31856;-35.404;149.120;2022-07-22T04:42:26;2.55;;;0.50;;
46122;SDS011;31856;-35.404;149.120;2022-07-22T04:44:56;0.77;;;0.50;;
46122;SDS011;31856;-35.404;149.120;2022-07-22T04:47:26;2.35;;;0.68;;
46122;SDS011;31856;-35.404;149.120;2022-07-22T04:49:55;1.92;;;0.60;;
46122;SDS011;31856;-35.404;149.120;2022-07-22T04:52:26;0.85;;;0.60;;
46122;SDS011;31856;-35.404;149.120;2022-07-22T04:54:56;0.57;;;0.47;;
46122;SDS011;31856;-35.404;149.120;2022-07-22T04:57:27;1.10;;;0.55;;
46122;SDS011;31856;-35.404;149.120;2022-07-22T04:59:57;2.05;;;0.50;;
46122;SDS011;31856;-35.404;149.120;2022-07-22T05:02:27;0.75;;;0.60;;
46122;SDS011;31856;-35.404;149.120;2022-07-22T05:04:57;0.75;;;0.40;;
46122;SDS011;31856;-35.404;149.120;2022-07-22T05:07:28;0.60;;;0.50;;
46122;SDS011;31856;-35.404;149.120;2022-07-22T05:09:58;2.33;;;0.50;;
46122;SDS011;31856;-35.404;149.120;2022-07-22T05:12:28;1.27;;;0.75;;
46122;SDS011;31856;-35.404;149.120;2022-07-22T05:14:58;1.73;;;0.80;;
46122;SDS011;31856;-35.404;149.120;2022-07-22T05:17:28;4.10;;;0.73;;
46122;SDS011;31856;-35.404;149.120;2022-07-22T05:19:57;2.70;;;1.25;;
46122;SDS011;31856;-35.404;149.120;2022-07-22T05:22:27;1.10;;;0.70;;
46122;SDS011;31856;-35.404;149.120;2022-07-22T05:25:03;1.00;;;0.60;;
46122;SDS011;31856;-35.404;149.120;2022-07-22T05:27:34;0.80;;;0.60;;
46122;SDS011;31856;-35.404;149.120;2022-07-22T05:30:04;0.40;;;0.40;;
46122;SDS011;31856;-35.404;149.120;2022-07-22T05:32:34;2.60;;;0.55;;
46122;SDS011;31856;-35.404;149.120;2022-07-22T05:35:04;1.00;;;0.70;;
46122;SDS011;31856;-35.404;149.120;2022-07-22T05:37:35;0.93;;;0.50;;
46122;SDS011;31856;-35.404;149.120;2022-07-22T05:40:06;0.88;;;0.50;;
46122;SDS011;31856;-35.404;149.120;2022-07-22T05:42:37;0.68;;;0.50;;
46122;SDS011;31856;-35.404;149.120;2022-07-22T05:45:07;1.35;;;0.63;;
46122;SDS011;31856;-35.404;149.120;2022-07-22T05:47:39;0.75;;;0.50;;
46122;SDS011;31856;-35.404;149.120;2022-07-22T05:50:09;1.23;;;0.50;;
46122;SDS011;31856;-35.404;149.120;2022-07-22T05:52:39;0.52;;;0.50;;
46122;SDS011;31856;-35.404;149.120;2022-07-22T05:55:09;0.50;;;0.43;;
46122;SDS011;31856;-35.404;149.120;2022-07-22T05:57:39;1.27;;;0.30;;
46122;SDS011;31856;-35.404;149.120;2022-07-22T06:00:09;0.82;;;0.40;;
46122;SDS011;31856;-35.404;149.120;2022-07-22T06:02:41;0.95;;;0.70;;
46122;SDS011;31856;-35.404;149.120;2022-07-22T06:05:11;1.50;;;1.10;;
46122;SDS011;31856;-35.404;149.120;2022-07-22T06:08:02;3.83;;;2.28;;
46122;SDS011;31856;-35.404;149.120;2022-07-22T06:10:32;2.30;;;1.60;;
46122;SDS011;31856;-35.404;149.120;2022-07-22T06:13:02;2.20;;;1.55;;
46122;SDS011;31856;-35.404;149.120;2022-07-22T06:15:33;1.77;;;0.82;;
46122;SDS011;31856;-35.404;149.120;2022-07-22T07:07:13;3.08;;;1.60;;
46122;SDS011;31856;-35.404;149.120;2022-07-22T07:09:45;1.95;;;0.80;;
46122;SDS011;31856;-35.404;149.120;2022-07-22T07:12:15;2.55;;;0.77;;
46122;SDS011;31856;-35.404;149.120;2022-07-22T07:14:45;2.08;;;1.20;;
46122;SDS011;31856;-35.404;149.120;2022-07-22T07:17:35;1.75;;;1.05;;
46122;SDS011;31856;-35.404;149.120;2022-07-22T07:20:05;2.25;;;1.65;;
46122;SDS011;31856;-35.404;149.120;2022-07-22T07:22:36;2.85;;;2.10;;
46122;SDS011;31856;-35.404;149.120;2022-07-22T07:25:07;2.35;;;1.85;;
46122;SDS011;31856;-35.404;149.120;2022-07-22T07:27:49;2.13;;;1.02;;
46122;SDS011;31856;-35.404;149.120;2022-07-22T07:30:20;1.40;;;0.70;;
46122;SDS011;31856;-35.404;149.120;2022-07-22T07:32:51;1.45;;;0.90;;
46122;SDS011;31856;-35.404;149.120;2022-07-22T07:35:20;2.17;;;1.20;;
46122;SDS011;31856;-35.404;149.120;2022-07-22T07:40:27;2.05;;;1.02;;
46122;SDS011;31856;-35.404;149.120;2022-07-22T07:42:58;1.13;;;0.98;;
46122;SDS011;31856;-35.404;149.120;2022-07-22T07:45:30;2.83;;;2.22;;
46122;SDS011;31856;-35.404;149.120;2022-07-22T07:48:00;2.65;;;1.95;;
46122;SDS011;31856;-35.404;149.120;2022-07-22T07:50:31;2.10;;;1.38;;
46122;SDS011;31856;-35.404;149.120;2022-07-22T07:53:01;4.70;;;2.22;;
46122;SDS011;31856;-35.404;149.120;2022-07-22T07:55:33;3.40;;;2.42;;
46122;SDS011;31856;-35.404;149.120;2022-07-22T07:58:09;2.40;;;1.85;;
46122;SDS011;31856;-35.404;149.120;2022-07-22T08:00:39;2.38;;;1.63;;
46122;SDS011;31856;-35.404;149.120;2022-07-22T08:03:11;2.35;;;1.58;;
46122;SDS011;31856;-35.404;149.120;2022-07-22T08:05:41;1.73;;;0.90;;
46122;SDS011;31856;-35.404;149.120;2022-07-22T08:21:41;1.98;;;0.75;;
46122;SDS011;31856;-35.404;149.120;2022-07-22T08:24:12;1.40;;;1.00;;
46122;SDS011;31856;-35.404;149.120;2022-07-22T08:26:42;1.80;;;1.10;;
46122;SDS011;31856;-35.404;149.120;2022-07-22T08:29:11;1.98;;;1.10;;
46122;SDS011;31856;-35.404;149.120;2022-07-22T08:31:41;2.22;;;1.13;;
46122;SDS011;31856;-35.404;149.120;2022-07-22T08:34:12;1.77;;;1.05;;
46122;SDS011;31856;-35.404;149.120;2022-07-22T08:36:42;2.15;;;1.00;;
46122;SDS011;31856;-35.404;149.120;2022-07-22T08:39:12;1.25;;;0.80;;
46122;SDS011;31856;-35.404;149.120;2022-07-22T08:41:48;3.15;;;0.98;;
46122;SDS011;31856;-35.404;149.120;2022-07-22T08:44:18;0.93;;;0.70;;
46122;SDS011;31856;-35.404;149.120;2022-07-22T08:46:49;0.77;;;0.57;;
46122;SDS011;31856;-35.404;149.120;2022-07-22T08:49:20;2.40;;;0.80;;
46122;SDS011;31856;-35.404;149.120;2022-07-22T08:51:50;0.80;;;0.70;;
46122;SDS011;31856;-35.404;149.120;2022-07-22T08:54:20;1.58;;;0.70;;
46122;SDS011;31856;-35.404;149.120;2022-07-22T08:56:51;1.50;;;0.65;;
46122;SDS011;31856;-35.404;149.120;2022-07-22T08:59:21;1.75;;;0.60;;
46122;SDS011;31856;-35.404;149.120;2022-07-22T09:02:01;1.35;;;1.00;;
46122;SDS011;31856;-35.404;149.120;2022-07-22T09:04:32;1.30;;;0.63;;
46122;SDS011;31856;-35.404;149.120;2022-07-22T09:07:02;1.70;;;0.70;;
46122;SDS011;31856;-35.404;149.120;2022-07-22T09:09:32;1.77;;;0.70;;
46122;SDS011;31856;-35.404;149.120;2022-07-22T09:12:06;0.80;;;0.70;;
46122;SDS011;31856;-35.404;149.120;2022-07-22T09:14:44;2.22;;;1.60;;
46122;SDS011;31856;-35.404;149.120;2022-07-22T09:17:28;3.47;;;2.28;;
46122;SDS011;31856;-35.404;149.120;2022-07-22T09:19:59;3.40;;;2.20;;
46122;SDS011;31856;-35.404;149.120;2022-07-22T09:22:33;2.88;;;2.08;;
46122;SDS011;31856;-35.404;149.120;2022-07-22T09:30:59;4.22;;;3.13;;
46122;SDS011;31856;-35.404;149.120;2022-07-22T09:33:29;4.47;;;3.30;;
46122;SDS011;31856;-35.404;149.120;2022-07-22T09:36:03;6.88;;;3.90;;
46122;SDS011;31856;-35.404;149.120;2022-07-22T09:38:33;7.93;;;5.18;;
46122;SDS011;31856;-35.404;149.120;2022-07-22T09:41:06;7.47;;;4.60;;
46122;SDS011;31856;-35.404;149.120;2022-07-22T09:43:36;4.03;;;2.22;;
46122;SDS011;31856;-35.404;149.120;2022-07-22T09:46:06;2.75;;;1.15;;
46122;SDS011;31856;-35.404;149.120;2022-07-22T09:48:38;3.47;;;1.27;;
46122;SDS011;31856;-35.404;149.120;2022-07-22T09:51:08;6.45;;;2.67;;
46122;SDS011;31856;-35.404;149.120;2022-07-22T09:53:38;6.57;;;3.30;;
46122;SDS011;31856;-35.404;149.120;2022-07-22T09:56:10;10.70;;;5.15;;
46122;SDS011;31856;-35.404;149.120;2022-07-22T09:58:41;11.13;;;5.45;;
46122;SDS011;31856;-35.404;149.120;2022-07-22T10:01:24;7.65;;;3.95;;
46122;SDS011;31856;-35.404;149.120;2022-07-22T13:43:29;10.18;;;6.78;;
46122;SDS011;31856;-35.404;149.120;2022-07-22T13:45:59;17.05;;;11.77;;
46122;SDS011;31856;-35.404;149.120;2022-07-22T13:48:30;13.30;;;9.05;;
46122;SDS011;31856;-35.404;149.120;2022-07-22T13:51:00;11.80;;;7.82;;
46122;SDS011;31856;-35.404;149.120;2022-07-22T13:53:36;8.98;;;6.82;;
46122;SDS011;31856;-35.404;149.120;2022-07-22T13:58:35;10.13;;;5.22;;
46122;SDS011;31856;-35.404;149.120;2022-07-22T14:01:06;8.95;;;4.80;;
46122;SDS011;31856;-35.404;149.120;2022-07-22T14:03:38;8.73;;;4.18;;
46122;SDS011;31856;-35.404;149.120;2022-07-22T14:06:08;9.60;;;5.45;;
46122;SDS011;31856;-35.404;149.120;2022-07-22T14:08:38;13.30;;;7.97;;
46122;SDS011;31856;-35.404;149.120;2022-07-22T14:11:09;10.35;;;6.75;;
46122;SDS011;31856;-35.404;149.120;2022-07-22T14:13:39;9.65;;;5.90;;
46122;SDS011;31856;-35.404;149.120;2022-07-22T14:16:10;8.88;;;5.93;;
46122;SDS011;31856;-35.404;149.120;2022-07-22T14:19:18;9.30;;;5.07;;
46122;SDS011;31856;-35.404;149.120;2022-07-22T14:21:48;7.97;;;5.00;;
46122;SDS011;31856;-35.404;149.120;2022-07-22T14:24:18;11.63;;;6.82;;
46122;SDS011;31856;-35.404;149.120;2022-07-22T14:26:51;13.80;;;9.25;;
46122;SDS011;31856;-35.404;149.120;2022-07-22T14:29:21;16.35;;;10.32;;
46122;SDS011;31856;-35.404;149.120;2022-07-22T14:31:51;15.70;;;9.35;;
46122;SDS011;31856;-35.404;149.120;2022-07-22T14:34:22;11.40;;;7.43;;
46122;SDS011;31856;-35.404;149.120;2022-07-22T14:36:51;8.35;;;5.97;;
46122;SDS011;31856;-35.404;149.120;2022-07-22T14:39:21;9.05;;;6.03;;
46122;SDS011;31856;-35.404;149.120;2022-07-22T14:44:37;8.95;;;5.25;;
46122;SDS011;31856;-35.404;149.120;2022-07-22T14:47:06;9.93;;;5.63;;
46122;SDS011;31856;-35.404;149.120;2022-07-22T14:49:36;6.32;;;4.18;;
46122;SDS011;31856;-35.404;149.120;2022-07-22T14:52:06;6.50;;;3.70;;
46122;SDS011;31856;-35.404;149.120;2022-07-22T14:54:37;7.00;;;3.88;;
46122;SDS011;31856;-35.404;149.120;2022-07-22T14:57:07;9.48;;;5.93;;
46122;SDS011;31856;-35.404;149.120;2022-07-22T14:59:38;10.15;;;5.60;;
46122;SDS011;31856;-35.404;149.120;2022-07-22T15:02:08;8.88;;;5.53;;
46122;SDS011;31856;-35.404;149.120;2022-07-22T15:04:38;11.10;;;6.05;;
46122;SDS011;31856;-35.404;149.120;2022-07-22T15:07:08;10.32;;;5.75;;
46122;SDS011;31856;-35.404;149.120;2022-07-22T15:09:38;8.88;;;4.20;;
46122;SDS011;31856;-35.404;149.120;2022-07-22T15:12:08;5.70;;;4.05;;
46122;SDS011;31856;-35.404;149.120;2022-07-22T15:14:58;6.07;;;3.85;;
46122;SDS011;31856;-35.404;149.120;2022-07-22T15:17:28;6.07;;;3.90;;
46122;SDS011;31856;-35.404;149.120;2022-07-22T15:20:03;5.60;;;3.70;;
46122;SDS011;31856;-35.404;149.120;2022-07-22T15:22:34;7.78;;;3.50;;
46122;SDS011;31856;-35.404;149.120;2022-07-22T15:25:04;5.32;;;3.42;;
46122;SDS011;31856;-35.404;149.120;2022-07-22T15:27:35;4.95;;;3.42;;
46122;SDS011;31856;-35.404;149.120;2022-07-22T15:30:07;7.75;;;3.33;;
46122;SDS011;31856;-35.404;149.120;2022-07-22T15:32:38;5.07;;;3.28;;
46122;SDS011;31856;-35.404;149.120;2022-07-22T15:35:08;4.35;;;2.83;;
46122;SDS011;31856;-35.404;149.120;2022-07-22T15:37:39;5.38;;;3.00;;
46122;SDS011;31856;-35.404;149.120;2022-07-22T15:40:09;5.00;;;2.67;;
46122;SDS011;31856;-35.404;149.120;2022-07-22T15:42:40;4.03;;;2.60;;
46122;SDS011;31856;-35.404;149.120;2022-07-22T15:48:00;4.07;;;3.00;;
46122;SDS011;31856;-35.404;149.120;2022-07-22T15:50:30;3.95;;;2.60;;
46122;SDS011;31856;-35.404;149.120;2022-07-22T15:53:01;4.53;;;2.88;;
46122;SDS011;31856;-35.404;149.120;2022-07-22T15:55:31;4.93;;;3.30;;
46122;SDS011;31856;-35.404;149.120;2022-07-22T15:58:02;5.28;;;3.00;;
46122;SDS011;31856;-35.404;149.120;2022-07-22T16:00:50;5.05;;;2.38;;
46122;SDS011;31856;-35.404;149.120;2022-07-22T16:03:20;2.65;;;2.00;;
46122;SDS011;31856;-35.404;149.120;2022-07-22T16:05:55;4.30;;;1.88;;
46122;SDS011;31856;-35.404;149.120;2022-07-22T16:08:26;3.58;;;1.90;;
46122;SDS011;31856;-35.404;149.120;2022-07-22T16:10:56;3.20;;;1.83;;
46122;SDS011;31856;-35.404;149.120;2022-07-22T16:13:26;2.13;;;1.67;;
46122;SDS011;31856;-35.404;149.120;2022-07-22T16:15:56;3.65;;;2.20;;
46122;SDS011;31856;-35.404;149.120;2022-07-22T16:18:26;3.75;;;1.88;;
46122;SDS011;31856;-35.404;149.120;2022-07-22T16:20:56;2.50;;;1.70;;
46122;SDS011;31856;-35.404;149.120;2022-07-22T16:23:26;3.45;;;1.58;;
46122;SDS011;31856;-35.404;149.120;2022-07-22T16:25:58;3.05;;;1.67;;
46122;SDS011;31856;-35.404;149.120;2022-07-22T16:28:27;2.10;;;1.15;;
46122;SDS011;31856;-35.404;149.120;2022-07-22T16:30:57;2.03;;;1.20;;
46122;SDS011;31856;-35.404;149.120;2022-07-22T16:33:28;2.63;;;1.27;;
46122;SDS011;31856;-35.404;149.120;2022-07-22T16:36:00;2.47;;;1.10;;
46122;SDS011;31856;-35.404;149.120;2022-07-22T16:38:30;4.00;;;1.67;;
46122;SDS011;31856;-35.404;149.120;2022-07-22T16:40:59;3.35;;;1.30;;
46122;SDS011;31856;-35.404;149.120;2022-07-22T16:43:29;2.65;;;1.27;;
46122;SDS011;31856;-35.404;149.120;2022-07-22T16:45:59;3.63;;;1.48;;
46122;SDS011;31856;-35.404;149.120;2022-07-22T16:48:29;1.67;;;1.30;;
46122;SDS011;31856;-35.404;149.120;2022-07-22T16:51:00;2.13;;;1.10;;
46122;SDS011;31856;-35.404;149.120;2022-07-22T16:53:30;2.83;;;1.20;;
46122;SDS011;31856;-35.404;149.120;2022-07-22T16:56:00;2.45;;;1.20;;
46122;SDS011;31856;-35.404;149.120;2022-07-22T16:58:30;2.13;;;1.45;;
46122;SDS011;31856;-35.404;149.120;2022-07-22T17:01:01;1.30;;;1.00;;
46122;SDS011;31856;-35.404;149.120;2022-07-22T17:03:32;3.03;;;1.27;;
46122;SDS011;31856;-35.404;149.120;2022-07-22T17:06:02;2.88;;;1.30;;
46122;SDS011;31856;-35.404;149.120;2022-07-22T17:08:32;3.13;;;1.60;;
46122;SDS011;31856;-35.404;149.120;2022-07-22T17:11:02;3.70;;;2.08;;
46122;SDS011;31856;-35.404;149.120;2022-07-22T17:13:32;2.35;;;1.20;;
46122;SDS011;31856;-35.404;149.120;2022-07-22T17:16:04;3.72;;;1.45;;
46122;SDS011;31856;-35.404;149.120;2022-07-22T17:18:34;2.53;;;1.58;;
46122;SDS011;31856;-35.404;149.120;2022-07-22T17:21:04;2.55;;;1.63;;
46122;SDS011;31856;-35.404;149.120;2022-07-22T17:23:35;3.33;;;2.05;;
46122;SDS011;31856;-35.404;149.120;2022-07-22T17:26:06;3.10;;;2.08;;
46122;SDS011;31856;-35.404;149.120;2022-07-22T17:28:36;4.43;;;2.08;;
46122;SDS011;31856;-35.404;149.120;2022-07-22T17:31:09;2.72;;;1.88;;
46122;SDS011;31856;-35.404;149.120;2022-07-22T17:33:39;4.65;;;2.40;;
46122;SDS011;31856;-35.404;149.120;2022-07-22T17:36:09;5.90;;;2.88;;
46122;SDS011;31856;-35.404;149.120;2022-07-22T17:38:39;3.95;;;2.72;;
46122;SDS011;31856;-35.404;149.120;2022-07-22T17:41:09;7.78;;;3.45;;
46122;SDS011;31856;-35.404;149.120;2022-07-22T17:43:40;4.63;;;2.90;;
46122;SDS011;31856;-35.404;149.120;2022-07-22T17:46:10;5.63;;;3.25;;
46122;SDS011;31856;-35.404;149.120;2022-07-22T17:48:41;4.70;;;2.90;;
46122;SDS011;31856;-35.404;149.120;2022-07-22T17:51:11;5.68;;;3.28;;
46122;SDS011;31856;-35.404;149.120;2022-07-22T17:53:42;5.78;;;3.25;;
46122;SDS011;31856;-35.404;149.120;2022-07-22T17:56:12;8.05;;;4.55;;
46122;SDS011;31856;-35.404;149.120;2022-07-22T17:58:57;9.93;;;5.10;;
46122;SDS011;31856;-35.404;149.120;2022-07-22T18:01:28;9.40;;;4.97;;
46122;SDS011;31856;-35.404;149.120;2022-07-22T18:03:58;7.05;;;4.15;;
46122;SDS011;31856;-35.404;149.120;2022-07-22T18:06:28;9.20;;;4.30;;
46122;SDS011;31856;-35.404;149.120;2022-07-22T18:08:59;9.23;;;3.97;;
46122;SDS011;31856;-35.404;149.120;2022-07-22T18:11:29;6.97;;;3.28;;
46122;SDS011;31856;-35.404;149.120;2022-07-22T18:13:59;6.32;;;2.60;;
46122;SDS011;31856;-35.404;149.120;2022-07-22T18:16:29;4.93;;;2.03;;
46122;SDS011;31856;-35.404;149.120;2022-07-22T18:18:59;5.13;;;2.33;;
46122;SDS011;31856;-35.404;149.120;2022-07-22T18:21:30;4.40;;;1.98;;
46122;SDS011;31856;-35.404;149.120;2022-07-22T18:24:00;7.05;;;3.33;;
46122;SDS011;31856;-35.404;149.120;2022-07-22T18:26:33;7.35;;;2.70;;
46122;SDS011;31856;-35.404;149.120;2022-07-22T18:29:04;7.10;;;2.28;;
46122;SDS011;31856;-35.404;149.120;2022-07-22T18:31:34;6.30;;;2.15;;
46122;SDS011;31856;-35.404;149.120;2022-07-22T18:34:04;3.03;;;1.65;;
46122;SDS011;31856;-35.404;149.120;2022-07-22T18:36:34;2.35;;;1.30;;
46122;SDS011;31856;-35.404;149.120;2022-07-22T18:39:04;4.30;;;1.90;;
46122;SDS011;31856;-35.404;149.120;2022-07-22T18:41:36;5.40;;;1.55;;
46122;SDS011;31856;-35.404;149.120;2022-07-22T18:44:06;2.67;;;1.00;;
46122;SDS011;31856;-35.404;149.120;2022-07-22T18:46:36;2.40;;;1.00;;
46122;SDS011;31856;-35.404;149.120;2022-07-22T18:49:07;2.35;;;1.33;;
46122;SDS011;31856;-35.404;149.120;2022-07-22T18:51:37;2.97;;;1.27;;
46122;SDS011;31856;-35.404;149.120;2022-07-22T18:54:07;2.92;;;1.38;;
46122;SDS011;31856;-35.404;149.120;2022-07-22T18:56:37;2.60;;;1.00;;
46122;SDS011;31856;-35.404;149.120;2022-07-22T18:59:07;3.35;;;1.20;;
46122;SDS011;31856;-35.404;149.120;2022-07-22T19:01:37;3.03;;;0.98;;
46122;SDS011;31856;-35.404;149.120;2022-07-22T19:04:07;4.72;;;0.98;;
46122;SDS011;31856;-35.404;149.120;2022-07-22T19:06:37;2.45;;;1.00;;
46122;SDS011;31856;-35.404;149.120;2022-07-22T19:09:07;1.13;;;0.80;;
46122;SDS011;31856;-35.404;149.120;2022-07-22T19:11:37;1.98;;;0.82;;
46122;SDS011;31856;-35.404;149.120;2022-07-22T19:14:08;1.55;;;0.80;;
46122;SDS011;31856;-35.404;149.120;2022-07-22T19:16:37;1.45;;;0.70;;
46122;SDS011;31856;-35.404;149.120;2022-07-22T19:19:08;1.05;;;0.70;;
46122;SDS011;31856;-35.404;149.120;2022-07-22T19:21:38;1.33;;;0.70;;
46122;SDS011;31856;-35.404;149.120;2022-07-22T19:24:08;2.25;;;0.70;;
46122;SDS011;31856;-35.404;149.120;2022-07-22T19:26:42;1.10;;;0.65;;
46122;SDS011;31856;-35.404;149.120;2022-07-22T19:29:13;1.67;;;0.80;;